sensor_id;sensor_type;location;lat;lon;timestamp;pressure;altitude;pressure_sealevel;temperature;humidity
12664;BME280;6396;58.490;15.528;2023-02-28T00:00:52;101998.97;;;1.41;100.00
12664;BME280;6396;58.490;15.528;2023-02-28T00:03:19;101948.94;;;1.50;100.00
12664;BME280;6396;58.490;15.528;2023-02-28T00:05:46;101673.63;;;-0.53;100.00
12664;BME280;6396;58.490;15.528;2023-02-28T00:08:13;101318.75;;;-2.68;100.00
12664;BME280;6396;58.490;15.528;2023-02-28T00:10:40;101704.44;;;-0.37;100.00
12664;BME280;6396;58.490;15.528;2023-02-28T00:13:08;101431.59;;;-2.24;100.00
12664;BME280;6396;58.490;15.528;2023-02-28T00:15:36;101633.03;;;-0.51;100.00
12664;BME280;6396;58.490;15.528;2023-02-28T00:18:03;101344.59;;;-1.99;100.00
12664;BME280;6396;58.490;15.528;2023-02-28T00:20:31;101129.28;;;-3.82;100.00
12664;BME280;6396;58.490;15.528;2023-02-28T00:22:59;101583.84;;;-0.74;100.00
12664;BME280;6396;58.490;15.528;2023-02-28T00:25:26;102241.13;;;2.71;100.00
12664;BME280;6396;58.490;15.528;2023-02-28T00:27:54;101246.66;;;-3.28;100.00
12664;BME280;6396;58.490;15.528;2023-02-28T00:30:24;101812.97;;;0.47;100.00
12664;BME280;6396;58.490;15.528;2023-02-28T00:32:51;102307.94;;;2.68;100.00
12664;BME280;6396;58.490;15.528;2023-02-28T00:35:18;101309.03;;;-2.52;100.00
12664;BME280;6396;58.490;15.528;2023-02-28T00:37:44;101720.75;;;-0.16;100.00
12664;BME280;6396;58.490;15.528;2023-02-28T00:40:11;101902.56;;;0.35;100.00
12664;BME280;6396;58.490;15.528;2023-02-28T00:42:39;101154.03;;;-3.43;100.00
12664;BME280;6396;58.490;15.528;2023-02-28T00:45:06;101431.16;;;-2.13;100.00
12664;BME280;6396;58.490;15.528;2023-02-28T00:47:36;101994.13;;;1.52;100.00
12664;BME280;6396;58.490;15.528;2023-02-28T00:50:03;102147.84;;;2.35;100.00
12664;BME280;6396;58.490;15.528;2023-02-28T00:52:31;101257.22;;;-3.00;100.00
12664;BME280;6396;58.490;15.528;2023-02-28T00:54:58;102293.44;;;2.76;100.00
12664;BME280;6396;58.490;15.528;2023-02-28T00:57:25;101168.22;;;-3.10;100.00
12664;BME280;6396;58.490;15.528;2023-02-28T00:59:53;101943.03;;;0.77;100.00
12664;BME280;6396;58.490;15.528;2023-02-28T01:02:21;101705.78;;;-0.71;100.00
12664;BME280;6396;58.490;15.528;2023-02-28T01:04:49;102259.31;;;2.70;100.00
12664;BME280;6396;58.490;15.528;2023-02-28T01:07:17;101609.25;;;-0.64;100.00
12664;BME280;6396;58.490;15.528;2023-02-28T01:09:47;101587.56;;;-0.66;100.00
12664;BME280;6396;58.490;15.528;2023-02-28T01:12:13;102223.03;;;2.76;100.00
12664;BME280;6396;58.490;15.528;2023-02-28T01:14:40;102284.69;;;2.74;100.00
12664;BME280;6396;58.490;15.528;2023-02-28T01:17:08;101787.00;;;-0.02;100.00
12664;BME280;6396;58.490;15.528;2023-02-28T01:19:34;101577.97;;;-0.69;100.00
12664;BME280;6396;58.490;15.528;2023-02-28T01:22:04;101614.41;;;-0.64;100.00
12664;BME280;6396;58.490;15.528;2023-02-28T01:24:31;102317.69;;;2.73;100.00
12664;BME280;6396;58.490;15.528;2023-02-28T01:26:59;101700.84;;;0.09;100.00
12664;BME280;6396;58.490;15.528;2023-02-28T01:29:25;102265.56;;;2.75;100.00
12664;BME280;6396;58.490;15.528;2023-02-28T01:31:52;101302.22;;;-2.94;100.00
12664;BME280;6396;58.490;15.528;2023-02-28T01:34:19;101593.22;;;-0.78;100.00
12664;BME280;6396;58.490;15.528;2023-02-28T01:36:46;102248.94;;;2.71;100.00
12664;BME280;6396;58.490;15.528;2023-02-28T01:39:14;101687.56;;;-0.01;100.00
12664;BME280;6396;58.490;15.528;2023-02-28T01:41:41;101585.81;;;-0.67;100.00
12664;BME280;6396;58.490;15.528;2023-02-28T01:47:08;101860.31;;;0.90;100.00
12664;BME280;6396;58.490;15.528;2023-02-28T01:49:36;101493.41;;;-1.16;100.00
12664;BME280;6396;58.490;15.528;2023-02-28T01:52:03;101860.38;;;0.67;100.00
12664;BME280;6396;58.490;15.528;2023-02-28T01:54:33;102024.66;;;1.57;100.00
12664;BME280;6396;58.490;15.528;2023-02-28T01:57:03;101545.25;;;-0.90;100.00
12664;BME280;6396;58.490;15.528;2023-02-28T01:59:35;102224.91;;;2.53;100.00
12664;BME280;6396;58.490;15.528;2023-02-28T02:02:04;102157.09;;;2.52;100.00
12664;BME280;6396;58.490;15.528;2023-02-28T02:04:35;101999.75;;;1.39;100.00
12664;BME280;6396;58.490;15.528;2023-02-28T02:07:04;102076.28;;;1.70;100.00
12664;BME280;6396;58.490;15.528;2023-02-28T02:09:32;101651.28;;;-0.96;100.00
12664;BME280;6396;58.490;15.528;2023-02-28T02:12:01;102019.47;;;1.57;100.00
12664;BME280;6396;58.490;15.528;2023-02-28T02:14:43;102051.78;;;1.90;100.00
12664;BME280;6396;58.490;15.528;2023-02-28T02:17:24;102016.16;;;1.36;100.00
12664;BME280;6396;58.490;15.528;2023-02-28T02:20:32;102153.91;;;2.34;100.00
12664;BME280;6396;58.490;15.528;2023-02-28T02:29:57;101883.34;;;0.80;100.00
12664;BME280;6396;58.490;15.528;2023-02-28T02:35:33;102143.47;;;2.34;100.00
12664;BME280;6396;58.490;15.528;2023-02-28T02:38:08;102073.94;;;1.53;100.00
12664;BME280;6396;58.490;15.528;2023-02-28T02:40:43;101841.53;;;0.47;100.00
12664;BME280;6396;58.490;15.528;2023-02-28T02:43:16;101861.09;;;0.88;100.00
12664;BME280;6396;58.490;15.528;2023-02-28T02:45:49;101694.28;;;-0.31;100.00
12664;BME280;6396;58.490;15.528;2023-02-28T02:48:18;101976.84;;;1.54;100.00
12664;BME280;6396;58.490;15.528;2023-02-28T02:50:50;101782.72;;;-0.25;100.00
12664;BME280;6396;58.490;15.528;2023-02-28T02:53:21;102045.13;;;1.73;100.00
12664;BME280;6396;58.490;15.528;2023-02-28T02:55:52;101823.06;;;0.65;100.00
12664;BME280;6396;58.490;15.528;2023-02-28T02:58:23;102143.72;;;2.41;100.00
12664;BME280;6396;58.490;15.528;2023-02-28T03:00:53;101964.03;;;1.61;100.00
12664;BME280;6396;58.490;15.528;2023-02-28T03:03:23;101981.97;;;1.79;100.00
12664;BME280;6396;58.490;15.528;2023-02-28T03:05:57;102123.38;;;2.58;100.00
12664;BME280;6396;58.490;15.528;2023-02-28T03:08:24;102152.22;;;2.62;100.00
12664;BME280;6396;58.490;15.528;2023-02-28T03:10:52;102129.72;;;2.66;100.00
12664;BME280;6396;58.490;15.528;2023-02-28T03:13:41;102139.34;;;2.68;100.00
12664;BME280;6396;58.490;15.528;2023-02-28T03:16:29;102118.44;;;2.67;100.00
12664;BME280;6396;58.490;15.528;2023-02-28T03:19:05;102128.81;;;2.65;100.00
12664;BME280;6396;58.490;15.528;2023-02-28T03:21:43;102004.63;;;1.81;100.00
12664;BME280;6396;58.490;15.528;2023-02-28T03:24:14;102268.72;;;2.65;100.00
12664;BME280;6396;58.490;15.528;2023-02-28T03:26:50;101641.03;;;-0.45;100.00
12664;BME280;6396;58.490;15.528;2023-02-28T03:29:22;102120.69;;;2.55;100.00
12664;BME280;6396;58.490;15.528;2023-02-28T03:31:55;102077.38;;;2.32;100.00
12664;BME280;6396;58.490;15.528;2023-02-28T03:34:29;102210.56;;;2.66;100.00
12664;BME280;6396;58.490;15.528;2023-02-28T03:37:03;102137.53;;;2.66;100.00
12664;BME280;6396;58.490;15.528;2023-02-28T03:39:34;101747.94;;;0.46;100.00
12664;BME280;6396;58.490;15.528;2023-02-28T03:42:06;101951.81;;;1.57;100.00
12664;BME280;6396;58.490;15.528;2023-02-28T03:44:38;101604.84;;;-0.67;100.00
12664;BME280;6396;58.490;15.528;2023-02-28T03:47:08;102170.59;;;2.67;100.00
12664;BME280;6396;58.490;15.528;2023-02-28T03:49:38;101783.50;;;0.47;100.00
12664;BME280;6396;58.490;15.528;2023-02-28T03:52:10;102134.84;;;2.64;100.00
12664;BME280;6396;58.490;15.528;2023-02-28T03:54:41;101724.91;;;-0.21;100.00
12664;BME280;6396;58.490;15.528;2023-02-28T03:57:13;102244.22;;;2.60;100.00
12664;BME280;6396;58.490;15.528;2023-02-28T03:59:45;101324.03;;;-2.87;100.00
12664;BME280;6396;58.490;15.528;2023-02-28T04:02:13;102155.56;;;2.58;100.00
12664;BME280;6396;58.490;15.528;2023-02-28T04:04:40;101994.81;;;1.73;100.00
12664;BME280;6396;58.490;15.528;2023-02-28T04:07:15;101714.38;;;0.25;100.00
12664;BME280;6396;58.490;15.528;2023-02-28T04:09:42;102126.13;;;2.62;100.00
12664;BME280;6396;58.490;15.528;2023-02-28T04:12:09;102142.50;;;2.30;100.00
12664;BME280;6396;58.490;15.528;2023-02-28T04:14:36;102028.38;;;1.92;100.00
12664;BME280;6396;58.490;15.528;2023-02-28T04:17:04;101776.63;;;0.49;100.00
12664;BME280;6396;58.490;15.528;2023-02-28T04:19:30;102163.53;;;2.64;100.00
12664;BME280;6396;58.490;15.528;2023-02-28T04:21:57;101864.19;;;1.03;100.00
12664;BME280;6396;58.490;15.528;2023-02-28T04:24:27;102150.41;;;2.61;100.00
12664;BME280;6396;58.490;15.528;2023-02-28T04:26:56;101964.44;;;1.73;100.00
12664;BME280;6396;58.490;15.528;2023-02-28T04:29:25;102089.00;;;2.41;100.00
12664;BME280;6396;58.490;15.528;2023-02-28T04:31:52;102151.09;;;2.56;100.00
12664;BME280;6396;58.490;15.528;2023-02-28T04:34:20;102035.94;;;2.11;100.00
12664;BME280;6396;58.490;15.528;2023-02-28T04:36:47;101835.00;;;0.85;100.00
12664;BME280;6396;58.490;15.528;2023-02-28T04:39:15;102138.06;;;2.56;100.00
12664;BME280;6396;58.490;15.528;2023-02-28T04:41:45;102118.97;;;2.55;100.00
12664;BME280;6396;58.490;15.528;2023-02-28T04:44:12;102026.69;;;1.92;100.00
12664;BME280;6396;58.490;15.528;2023-02-28T04:46:38;102106.53;;;2.18;100.00
12664;BME280;6396;58.490;15.528;2023-02-28T04:49:05;101847.75;;;0.52;100.00
12664;BME280;6396;58.490;15.528;2023-02-28T04:51:32;102168.53;;;2.57;100.00
12664;BME280;6396;58.490;15.528;2023-02-28T04:53:59;102149.34;;;2.55;100.00
12664;BME280;6396;58.490;15.528;2023-02-28T04:56:26;102132.81;;;2.54;100.00
12664;BME280;6396;58.490;15.528;2023-02-28T04:58:54;102220.00;;;2.36;100.00
12664;BME280;6396;58.490;15.528;2023-02-28T05:01:24;101903.63;;;0.90;100.00
12664;BME280;6396;58.490;15.528;2023-02-28T05:03:52;102113.72;;;2.54;100.00
12664;BME280;6396;58.490;15.528;2023-02-28T05:06:21;101936.56;;;1.16;100.00
12664;BME280;6396;58.490;15.528;2023-02-28T05:08:49;101966.69;;;1.63;100.00
12664;BME280;6396;58.490;15.528;2023-02-28T05:11:17;102078.59;;;1.88;100.00
12664;BME280;6396;58.490;15.528;2023-02-28T05:13:45;102125.81;;;2.52;100.00
12664;BME280;6396;58.490;15.528;2023-02-28T05:16:13;102077.41;;;2.05;100.00
12664;BME280;6396;58.490;15.528;2023-02-28T05:18:40;102135.38;;;2.53;100.00
12664;BME280;6396;58.490;15.528;2023-02-28T05:21:24;102170.84;;;2.48;100.00
12664;BME280;6396;58.490;15.528;2023-02-28T05:23:51;101778.34;;;0.48;100.00
12664;BME280;6396;58.490;15.528;2023-02-28T05:26:18;102140.25;;;2.42;100.00
12664;BME280;6396;58.490;15.528;2023-02-28T05:28:45;102046.56;;;1.90;100.00
12664;BME280;6396;58.490;15.528;2023-02-28T05:31:13;101929.69;;;1.45;100.00
12664;BME280;6396;58.490;15.528;2023-02-28T05:33:40;101430.06;;;-1.49;100.00
12664;BME280;6396;58.490;15.528;2023-02-28T05:36:07;102115.00;;;2.40;100.00
12664;BME280;6396;58.490;15.528;2023-02-28T05:38:34;101410.28;;;-1.72;100.00
12664;BME280;6396;58.490;15.528;2023-02-28T05:41:05;102189.00;;;2.45;100.00
12664;BME280;6396;58.490;15.528;2023-02-28T05:43:32;101792.00;;;0.43;100.00
12664;BME280;6396;58.490;15.528;2023-02-28T05:46:01;101985.50;;;1.54;100.00
12664;BME280;6396;58.490;15.528;2023-02-28T05:48:30;102132.53;;;2.45;100.00
12664;BME280;6396;58.490;15.528;2023-02-28T05:50:57;101984.16;;;1.13;100.00
12664;BME280;6396;58.490;15.528;2023-02-28T05:53:24;102162.09;;;2.46;100.00
12664;BME280;6396;58.490;15.528;2023-02-28T05:55:51;102126.47;;;2.45;100.00
12664;BME280;6396;58.490;15.528;2023-02-28T05:58:18;102179.28;;;2.39;100.00
12664;BME280;6396;58.490;15.528;2023-02-28T06:00:45;101654.47;;;-0.56;100.00
12664;BME280;6396;58.490;15.528;2023-02-28T06:03:15;101574.69;;;-0.65;100.00
12664;BME280;6396;58.490;15.528;2023-02-28T06:05:48;101312.88;;;-2.86;100.00
12664;BME280;6396;58.490;15.528;2023-02-28T06:08:15;101830.94;;;0.18;100.00
12664;BME280;6396;58.490;15.528;2023-02-28T06:10:43;102134.13;;;2.40;100.00
12664;BME280;6396;58.490;15.528;2023-02-28T06:13:10;102147.91;;;2.36;100.00
12664;BME280;6396;58.490;15.528;2023-02-28T06:15:40;102045.09;;;1.45;100.00
12664;BME280;6396;58.490;15.528;2023-02-28T06:18:07;102184.56;;;2.15;100.00
12664;BME280;6396;58.490;15.528;2023-02-28T06:20:34;102116.34;;;2.00;100.00
12664;BME280;6396;58.490;15.528;2023-02-28T06:23:03;101993.78;;;1.16;100.00
12664;BME280;6396;58.490;15.528;2023-02-28T06:25:29;102078.78;;;1.67;100.00
12664;BME280;6396;58.490;15.528;2023-02-28T06:27:56;101961.75;;;0.92;100.00
12664;BME280;6396;58.490;15.528;2023-02-28T06:30:26;102127.53;;;1.98;100.00
12664;BME280;6396;58.490;15.528;2023-02-28T06:32:56;102064.75;;;1.62;100.00
12664;BME280;6396;58.490;15.528;2023-02-28T06:35:23;101883.91;;;0.46;100.00
12664;BME280;6396;58.490;15.528;2023-02-28T06:37:50;101873.22;;;0.62;100.00
12664;BME280;6396;58.490;15.528;2023-02-28T06:40:18;102124.03;;;1.96;100.00
12664;BME280;6396;58.490;15.528;2023-02-28T06:42:45;102134.25;;;2.16;100.00
12664;BME280;6396;58.490;15.528;2023-02-28T06:45:12;102177.47;;;2.38;100.00
12664;BME280;6396;58.490;15.528;2023-02-28T06:47:40;102177.47;;;2.38;100.00
12664;BME280;6396;58.490;15.528;2023-02-28T06:50:10;101230.03;;;-3.13;100.00
12664;BME280;6396;58.490;15.528;2023-02-28T06:52:37;101914.97;;;0.68;100.00
12664;BME280;6396;58.490;15.528;2023-02-28T06:55:05;102188.06;;;2.43;100.00
12664;BME280;6396;58.490;15.528;2023-02-28T06:57:35;102134.94;;;2.11;100.00
12664;BME280;6396;58.490;15.528;2023-02-28T07:00:04;102181.19;;;2.45;100.00
12664;BME280;6396;58.490;15.528;2023-02-28T07:02:33;102113.91;;;2.06;100.00
12664;BME280;6396;58.490;15.528;2023-02-28T07:05:00;102125.50;;;2.14;100.00
12664;BME280;6396;58.490;15.528;2023-02-28T07:07:26;101986.69;;;1.37;100.00
12664;BME280;6396;58.490;15.528;2023-02-28T07:09:53;102091.31;;;2.05;100.00
12664;BME280;6396;58.490;15.528;2023-02-28T07:12:20;102108.38;;;2.22;100.00
12664;BME280;6396;58.490;15.528;2023-02-28T07:14:48;101644.97;;;-0.56;100.00
12664;BME280;6396;58.490;15.528;2023-02-28T07:17:15;101762.50;;;0.41;100.00
12664;BME280;6396;58.490;15.528;2023-02-28T07:19:42;101963.78;;;1.80;100.00
12664;BME280;6396;58.490;15.528;2023-02-28T07:22:09;102253.06;;;4.11;100.00
12664;BME280;6396;58.490;15.528;2023-02-28T07:24:36;101928.06;;;4.08;100.00
12664;BME280;6396;58.490;15.528;2023-02-28T07:27:03;101654.81;;;3.28;100.00
12664;BME280;6396;58.490;15.528;2023-02-28T07:29:33;101813.34;;;5.24;100.00
12664;BME280;6396;58.490;15.528;2023-02-28T07:32:11;102177.19;;;8.07;100.00
12664;BME280;6396;58.490;15.528;2023-02-28T07:34:42;101887.88;;;6.84;100.00
12664;BME280;6396;58.490;15.528;2023-02-28T07:37:12;102296.41;;;8.85;100.00
12664;BME280;6396;58.490;15.528;2023-02-28T07:40:37;101712.56;;;6.45;100.00
12664;BME280;6396;58.490;15.528;2023-02-28T07:43:06;101711.94;;;6.76;100.00
12664;BME280;6396;58.490;15.528;2023-02-28T07:45:33;102022.47;;;8.86;100.00
12664;BME280;6396;58.490;15.528;2023-02-28T07:48:02;101925.88;;;8.87;100.00
12664;BME280;6396;58.490;15.528;2023-02-28T07:50:31;101808.91;;;7.93;100.00
12664;BME280;6396;58.490;15.528;2023-02-28T07:53:25;101973.34;;;9.29;100.00
12664;BME280;6396;58.490;15.528;2023-02-28T07:55:55;101390.81;;;6.48;100.00
12664;BME280;6396;58.490;15.528;2023-02-28T07:58:22;101921.50;;;9.72;100.00
12664;BME280;6396;58.490;15.528;2023-02-28T08:01:16;101430.31;;;7.27;100.00
12664;BME280;6396;58.490;15.528;2023-02-28T08:03:48;101838.75;;;10.00;100.00
12664;BME280;6396;58.490;15.528;2023-02-28T08:06:18;101418.91;;;7.64;100.00
12664;BME280;6396;58.490;15.528;2023-02-28T08:08:48;101778.31;;;9.37;100.00
12664;BME280;6396;58.490;15.528;2023-02-28T08:11:19;102237.16;;;11.36;100.00
12664;BME280;6396;58.490;15.528;2023-02-28T08:13:46;102192.41;;;10.74;100.00
12664;BME280;6396;58.490;15.528;2023-02-28T08:16:14;101190.56;;;4.37;100.00
12664;BME280;6396;58.490;15.528;2023-02-28T08:18:48;102259.91;;;9.51;100.00
12664;BME280;6396;58.490;15.528;2023-02-28T08:21:15;101812.00;;;7.17;100.00
12664;BME280;6396;58.490;15.528;2023-02-28T08:23:42;102270.34;;;9.32;100.00
12664;BME280;6396;58.490;15.528;2023-02-28T08:26:09;101289.06;;;4.40;100.00
12664;BME280;6396;58.490;15.528;2023-02-28T08:28:36;101669.06;;;6.74;100.00
12664;BME280;6396;58.490;15.528;2023-02-28T08:31:07;102234.47;;;9.73;100.00
12664;BME280;6396;58.490;15.528;2023-02-28T08:33:35;101779.66;;;7.30;100.00
12664;BME280;6396;58.490;15.528;2023-02-28T08:36:07;101658.59;;;6.82;100.00
12664;BME280;6396;58.490;15.528;2023-02-28T08:38:35;101671.59;;;6.65;100.00
12664;BME280;6396;58.490;15.528;2023-02-28T08:41:06;102198.50;;;9.96;100.00
12664;BME280;6396;58.490;15.528;2023-02-28T08:43:34;101310.66;;;5.17;100.00
12664;BME280;6396;58.490;15.528;2023-02-28T08:46:07;101651.91;;;7.53;100.00
12664;BME280;6396;58.490;15.528;2023-02-28T08:48:37;101934.72;;;9.30;100.00
12664;BME280;6396;58.490;15.528;2023-02-28T08:51:07;101364.50;;;6.21;100.00
12664;BME280;6396;58.490;15.528;2023-02-28T08:53:35;102150.91;;;11.10;100.00
12664;BME280;6396;58.490;15.528;2023-02-28T08:56:05;102168.63;;;10.57;100.00
12664;BME280;6396;58.490;15.528;2023-02-28T08:58:33;101880.25;;;9.23;100.00
12664;BME280;6396;58.490;15.528;2023-02-28T09:01:12;101905.69;;;9.63;96.79
12664;BME280;6396;58.490;15.528;2023-02-28T09:03:40;101661.69;;;8.46;100.00
12664;BME280;6396;58.490;15.528;2023-02-28T09:06:10;101823.09;;;9.47;100.00
12664;BME280;6396;58.490;15.528;2023-02-28T09:08:43;102208.16;;;11.16;100.00
12664;BME280;6396;58.490;15.528;2023-02-28T09:11:13;101816.91;;;9.56;100.00
12664;BME280;6396;58.490;15.528;2023-02-28T09:13:55;101824.03;;;9.15;100.00
12664;BME280;6396;58.490;15.528;2023-02-28T09:16:25;101932.88;;;9.89;100.00
12664;BME280;6396;58.490;15.528;2023-02-28T09:18:52;101752.06;;;8.63;100.00
12664;BME280;6396;58.490;15.528;2023-02-28T09:21:21;101953.16;;;9.67;100.00
12664;BME280;6396;58.490;15.528;2023-02-28T09:23:49;101896.94;;;9.53;100.00
12664;BME280;6396;58.490;15.528;2023-02-28T09:26:25;101336.53;;;6.23;100.00
12664;BME280;6396;58.490;15.528;2023-02-28T09:28:53;101417.19;;;7.25;100.00
12664;BME280;6396;58.490;15.528;2023-02-28T09:32:22;102155.16;;;12.66;87.04
12664;BME280;6396;58.490;15.528;2023-02-28T09:35:14;101713.09;;;10.96;81.85
12664;BME280;6396;58.490;15.528;2023-02-28T09:44:45;102011.88;;;14.43;65.18
12664;BME280;6396;58.490;15.528;2023-02-28T09:57:13;101752.66;;;13.47;61.42
12664;BME280;6396;58.490;15.528;2023-02-28T10:05:22;102166.31;;;15.23;64.88
12664;BME280;6396;58.490;15.528;2023-02-28T10:08:00;101895.59;;;13.65;55.66
12664;BME280;6396;58.490;15.528;2023-02-28T10:10:35;101886.81;;;13.63;61.02
12664;BME280;6396;58.490;15.528;2023-02-28T10:13:11;101445.78;;;10.62;62.53
12664;BME280;6396;58.490;15.528;2023-02-28T10:15:39;101532.31;;;11.12;65.92
12664;BME280;6396;58.490;15.528;2023-02-28T10:18:11;101924.34;;;12.81;63.28
12664;BME280;6396;58.490;15.528;2023-02-28T10:20:42;102161.72;;;13.79;66.57
12664;BME280;6396;58.490;15.528;2023-02-28T10:23:13;101602.94;;;10.16;66.40
12664;BME280;6396;58.490;15.528;2023-02-28T10:25:45;101741.72;;;10.49;70.90
12664;BME280;6396;58.490;15.528;2023-02-28T10:28:54;101790.38;;;11.22;73.66
12664;BME280;6396;58.490;15.528;2023-02-28T10:38:32;102206.06;;;13.74;73.72
12664;BME280;6396;58.490;15.528;2023-02-28T10:51:36;102161.28;;;14.09;71.59
12664;BME280;6396;58.490;15.528;2023-02-28T10:54:05;102052.47;;;13.50;72.82
12664;BME280;6396;58.490;15.528;2023-02-28T10:56:32;102054.41;;;13.37;80.97
12664;BME280;6396;58.490;15.528;2023-02-28T10:59:01;102197.59;;;13.46;75.73
12664;BME280;6396;58.490;15.528;2023-02-28T11:01:36;102201.97;;;13.47;80.34
12664;BME280;6396;58.490;15.528;2023-02-28T11:04:17;101400.13;;;8.74;78.56
12664;BME280;6396;58.490;15.528;2023-02-28T11:06:56;101686.31;;;10.41;74.91
12664;BME280;6396;58.490;15.528;2023-02-28T11:09:29;101816.44;;;11.58;81.57
12664;BME280;6396;58.490;15.528;2023-02-28T11:11:59;101644.06;;;10.40;86.77
12664;BME280;6396;58.490;15.528;2023-02-28T11:14:28;101470.63;;;9.60;87.10
12664;BME280;6396;58.490;15.528;2023-02-28T11:17:01;101983.34;;;12.29;88.35
12664;BME280;6396;58.490;15.528;2023-02-28T11:19:32;102098.81;;;13.24;97.89
12664;BME280;6396;58.490;15.528;2023-02-28T11:22:03;102047.81;;;13.00;93.34
12664;BME280;6396;58.490;15.528;2023-02-28T11:24:40;102084.56;;;13.31;88.06
12664;BME280;6396;58.490;15.528;2023-02-28T11:27:25;101760.94;;;11.54;90.17
12664;BME280;6396;58.490;15.528;2023-02-28T11:29:54;101663.63;;;11.10;91.18
12664;BME280;6396;58.490;15.528;2023-02-28T11:32:24;101786.63;;;12.17;91.20
12664;BME280;6396;58.490;15.528;2023-02-28T11:35:04;101945.94;;;13.17;91.69
12664;BME280;6396;58.490;15.528;2023-02-28T11:37:43;102002.66;;;13.65;83.88
12664;BME280;6396;58.490;15.528;2023-02-28T11:40:23;101817.97;;;12.47;72.93
12664;BME280;6396;58.490;15.528;2023-02-28T11:42:59;101874.97;;;12.75;71.64
12664;BME280;6396;58.490;15.528;2023-02-28T11:45:44;102004.78;;;13.43;72.54
12664;BME280;6396;58.490;15.528;2023-02-28T11:48:18;101624.28;;;11.54;80.26
12664;BME280;6396;58.490;15.528;2023-02-28T11:50:58;102066.66;;;14.52;75.19
12664;BME280;6396;58.490;15.528;2023-02-28T11:53:50;101914.03;;;13.23;71.59
12664;BME280;6396;58.490;15.528;2023-02-28T11:56:26;101833.28;;;13.39;73.02
12664;BME280;6396;58.490;15.528;2023-02-28T11:59:02;101629.47;;;12.70;74.79
12664;BME280;6396;58.490;15.528;2023-02-28T12:01:45;101911.69;;;14.04;68.96
12664;BME280;6396;58.490;15.528;2023-02-28T12:04:25;102044.25;;;15.08;65.77
12664;BME280;6396;58.490;15.528;2023-02-28T12:07:01;101595.25;;;12.56;64.62
12664;BME280;6396;58.490;15.528;2023-02-28T12:09:40;101650.78;;;12.64;66.57
12664;BME280;6396;58.490;15.528;2023-02-28T12:12:22;101623.75;;;12.45;70.22
12664;BME280;6396;58.490;15.528;2023-02-28T12:15:02;101789.25;;;13.29;68.95
12664;BME280;6396;58.490;15.528;2023-02-28T12:17:45;101620.88;;;12.04;71.17
12664;BME280;6396;58.490;15.528;2023-02-28T12:20:24;102082.25;;;14.70;69.23
12664;BME280;6396;58.490;15.528;2023-02-28T12:23:01;101622.84;;;11.93;71.79
12664;BME280;6396;58.490;15.528;2023-02-28T12:25:55;101515.81;;;10.93;73.96
12664;BME280;6396;58.490;15.528;2023-02-28T12:28:34;102075.03;;;14.31;75.83
12664;BME280;6396;58.490;15.528;2023-02-28T12:31:09;101353.75;;;10.35;80.86
12664;BME280;6396;58.490;15.528;2023-02-28T12:33:42;102117.84;;;14.63;82.68
12664;BME280;6396;58.490;15.528;2023-02-28T12:36:22;101433.78;;;11.01;81.49
12664;BME280;6396;58.490;15.528;2023-02-28T12:38:53;102080.31;;;14.32;86.56
12664;BME280;6396;58.490;15.528;2023-02-28T12:41:29;101656.09;;;12.09;80.64
12664;BME280;6396;58.490;15.528;2023-02-28T12:44:05;101601.22;;;11.67;86.57
12664;BME280;6396;58.490;15.528;2023-02-28T12:46:36;101634.75;;;11.65;71.85
12664;BME280;6396;58.490;15.528;2023-02-28T12:49:08;101737.09;;;12.23;79.50
12664;BME280;6396;58.490;15.528;2023-02-28T12:51:37;102085.25;;;14.02;81.88
12664;BME280;6396;58.490;15.528;2023-02-28T12:54:10;102045.91;;;13.72;74.60
12664;BME280;6396;58.490;15.528;2023-02-28T12:56:44;101543.16;;;10.91;85.80
12664;BME280;6396;58.490;15.528;2023-02-28T12:59:21;101932.84;;;13.05;79.51
12664;BME280;6396;58.490;15.528;2023-02-28T13:05:29;101944.19;;;12.54;81.73
12664;BME280;6396;58.490;15.528;2023-02-28T13:08:37;101291.47;;;8.48;84.34
12664;BME280;6396;58.490;15.528;2023-02-28T13:11:23;101709.19;;;11.32;84.43
12664;BME280;6396;58.490;15.528;2023-02-28T13:13:57;101804.06;;;11.63;91.21
12664;BME280;6396;58.490;15.528;2023-02-28T13:16:26;101780.28;;;11.57;95.76
12664;BME280;6396;58.490;15.528;2023-02-28T13:19:08;101575.47;;;10.38;87.56
12664;BME280;6396;58.490;15.528;2023-02-28T13:21:43;101784.81;;;11.46;95.95
12664;BME280;6396;58.490;15.528;2023-02-28T13:24:11;102121.13;;;13.07;100.00
12664;BME280;6396;58.490;15.528;2023-02-28T13:33:25;102048.13;;;12.76;100.00
12664;BME280;6396;58.490;15.528;2023-02-28T13:36:07;101765.09;;;10.92;100.00
12664;BME280;6396;58.490;15.528;2023-02-28T13:38:38;102073.78;;;12.74;100.00
12664;BME280;6396;58.490;15.528;2023-02-28T13:44:23;101951.91;;;11.98;89.77
12664;BME280;6396;58.490;15.528;2023-02-28T13:47:21;102051.72;;;12.70;81.22
12664;BME280;6396;58.490;15.528;2023-02-28T13:49:50;101660.22;;;9.96;100.00
12664;BME280;6396;58.490;15.528;2023-02-28T13:52:20;102044.91;;;12.50;100.00
12664;BME280;6396;58.490;15.528;2023-02-28T13:54:58;101837.25;;;11.03;100.00
12664;BME280;6396;58.490;15.528;2023-02-28T13:57:35;101816.31;;;10.79;100.00
12664;BME280;6396;58.490;15.528;2023-02-28T14:00:18;101635.09;;;9.39;99.18
12664;BME280;6396;58.490;15.528;2023-02-28T14:03:05;102069.00;;;12.25;100.00
12664;BME280;6396;58.490;15.528;2023-02-28T14:05:35;102025.81;;;12.20;100.00
12664;BME280;6396;58.490;15.528;2023-02-28T14:08:06;101649.13;;;9.46;100.00
12664;BME280;6396;58.490;15.528;2023-02-28T14:10:42;101780.38;;;10.56;100.00
12664;BME280;6396;58.490;15.528;2023-02-28T14:13:39;102020.78;;;11.90;100.00
12664;BME280;6396;58.490;15.528;2023-02-28T14:16:12;101960.34;;;11.39;100.00
12664;BME280;6396;58.490;15.528;2023-02-28T14:18:41;102059.66;;;11.85;100.00